sensor_id;sensor_type;location;lat;lon;timestamp;P1;durP1;ratioP1;P2;durP2;ratioP2
12383;SDS011;6256;63.808;20.336;2022-10-26T00:00:47;3.97;;;2.23;;
12383;SDS011;6256;63.808;20.336;2022-10-26T00:03:14;2.40;;;1.87;;
12383;SDS011;6256;63.808;20.336;2022-10-26T00:05:40;2.60;;;2.20;;
12383;SDS011;6256;63.808;20.336;2022-10-26T00:08:06;1.83;;;1.73;;
12383;SDS011;6256;63.808;20.336;2022-10-26T00:10:33;2.23;;;1.97;;
12383;SDS011;6256;63.808;20.336;2022-10-26T00:13:00;2.70;;;2.40;;
12383;SDS011;6256;63.808;20.336;2022-10-26T00:15:26;4.00;;;1.90;;
12383;SDS011;6256;63.808;20.336;2022-10-26T00:17:52;2.90;;;2.10;;
12383;SDS011;6256;63.808;20.336;2022-10-26T00:20:17;2.63;;;2.20;;
12383;SDS011;6256;63.808;20.336;2022-10-26T00:22:43;2.10;;;1.90;;
12383;SDS011;6256;63.808;20.336;2022-10-26T00:25:09;2.37;;;1.90;;
12383;SDS011;6256;63.808;20.336;2022-10-26T00:27:35;2.87;;;2.17;;
12383;SDS011;6256;63.808;20.336;2022-10-26T00:30:01;4.53;;;2.67;;
12383;SDS011;6256;63.808;20.336;2022-10-26T00:32:30;4.03;;;2.57;;
12383;SDS011;6256;63.808;20.336;2022-10-26T00:34:56;4.23;;;2.40;;
12383;SDS011;6256;63.808;20.336;2022-10-26T00:37:22;6.70;;;3.20;;
12383;SDS011;6256;63.808;20.336;2022-10-26T00:39:47;5.20;;;3.00;;
12383;SDS011;6256;63.808;20.336;2022-10-26T00:42:20;4.73;;;3.30;;
12383;SDS011;6256;63.808;20.336;2022-10-26T00:50:02;4.33;;;3.10;;
12383;SDS011;6256;63.808;20.336;2022-10-26T00:52:32;5.70;;;2.80;;
12383;SDS011;6256;63.808;20.336;2022-10-26T00:54:58;4.00;;;2.90;;
12383;SDS011;6256;63.808;20.336;2022-10-26T00:57:24;5.93;;;2.90;;
12383;SDS011;6256;63.808;20.336;2022-10-26T00:59:50;6.47;;;3.30;;
12383;SDS011;6256;63.808;20.336;2022-10-26T01:02:20;4.70;;;3.07;;
12383;SDS011;6256;63.808;20.336;2022-10-26T01:04:46;3.20;;;2.87;;
12383;SDS011;6256;63.808;20.336;2022-10-26T01:07:12;5.33;;;3.20;;
12383;SDS011;6256;63.808;20.336;2022-10-26T01:09:38;6.37;;;3.23;;
12383;SDS011;6256;63.808;20.336;2022-10-26T01:12:04;5.63;;;3.90;;
12383;SDS011;6256;63.808;20.336;2022-10-26T01:14:30;4.83;;;3.40;;
12383;SDS011;6256;63.808;20.336;2022-10-26T01:22:56;4.10;;;3.00;;
12383;SDS011;6256;63.808;20.336;2022-10-26T01:28:16;4.67;;;3.07;;
12383;SDS011;6256;63.808;20.336;2022-10-26T01:31:03;5.10;;;3.20;;
12383;SDS011;6256;63.808;20.336;2022-10-26T01:33:48;7.20;;;3.00;;
12383;SDS011;6256;63.808;20.336;2022-10-26T01:39:13;4.27;;;2.80;;
12383;SDS011;6256;63.808;20.336;2022-10-26T01:41:47;6.50;;;3.10;;
12383;SDS011;6256;63.808;20.336;2022-10-26T01:44:17;6.97;;;3.33;;
12383;SDS011;6256;63.808;20.336;2022-10-26T01:46:53;5.03;;;2.93;;
12383;SDS011;6256;63.808;20.336;2022-10-26T01:49:21;7.43;;;2.87;;
12383;SDS011;6256;63.808;20.336;2022-10-26T01:51:51;7.10;;;2.73;;
12383;SDS011;6256;63.808;20.336;2022-10-26T01:54:16;7.20;;;3.47;;
12383;SDS011;6256;63.808;20.336;2022-10-26T01:56:46;7.87;;;2.87;;
12383;SDS011;6256;63.808;20.336;2022-10-26T01:59:29;5.87;;;2.80;;
12383;SDS011;6256;63.808;20.336;2022-10-26T02:15:52;15.80;;;3.00;;
12383;SDS011;6256;63.808;20.336;2022-10-26T02:20:46;5.27;;;2.53;;
12383;SDS011;6256;63.808;20.336;2022-10-26T02:23:14;8.20;;;2.83;;
12383;SDS011;6256;63.808;20.336;2022-10-26T02:25:46;6.60;;;2.83;;
12383;SDS011;6256;63.808;20.336;2022-10-26T02:28:16;5.30;;;2.83;;
12383;SDS011;6256;63.808;20.336;2022-10-26T02:30:45;5.50;;;2.80;;
12383;SDS011;6256;63.808;20.336;2022-10-26T02:33:14;5.40;;;2.43;;
12383;SDS011;6256;63.808;20.336;2022-10-26T02:35:44;5.90;;;3.10;;
12383;SDS011;6256;63.808;20.336;2022-10-26T02:38:14;3.43;;;2.33;;
12383;SDS011;6256;63.808;20.336;2022-10-26T02:40:43;2.90;;;2.27;;
12383;SDS011;6256;63.808;20.336;2022-10-26T02:43:13;2.70;;;2.03;;
12383;SDS011;6256;63.808;20.336;2022-10-26T02:45:47;3.83;;;2.43;;
12383;SDS011;6256;63.808;20.336;2022-10-26T02:48:18;3.70;;;2.60;;
12383;SDS011;6256;63.808;20.336;2022-10-26T02:56:24;3.70;;;1.93;;
12383;SDS011;6256;63.808;20.336;2022-10-26T02:58:56;5.33;;;1.90;;
12383;SDS011;6256;63.808;20.336;2022-10-26T03:01:26;2.73;;;1.77;;
12383;SDS011;6256;63.808;20.336;2022-10-26T03:03:56;3.00;;;2.20;;
12383;SDS011;6256;63.808;20.336;2022-10-26T03:06:23;3.83;;;2.03;;
12383;SDS011;6256;63.808;20.336;2022-10-26T03:08:49;2.20;;;2.00;;
12383;SDS011;6256;63.808;20.336;2022-10-26T03:11:15;3.17;;;2.00;;
12383;SDS011;6256;63.808;20.336;2022-10-26T03:13:41;3.00;;;2.00;;
12383;SDS011;6256;63.808;20.336;2022-10-26T03:16:07;3.63;;;2.13;;
12383;SDS011;6256;63.808;20.336;2022-10-26T03:18:33;3.53;;;2.00;;
12383;SDS011;6256;63.808;20.336;2022-10-26T03:20:58;3.70;;;2.10;;
12383;SDS011;6256;63.808;20.336;2022-10-26T03:23:27;2.77;;;1.70;;
12383;SDS011;6256;63.808;20.336;2022-10-26T03:25:56;2.37;;;1.80;;
12383;SDS011;6256;63.808;20.336;2022-10-26T03:28:24;2.90;;;2.03;;
12383;SDS011;6256;63.808;20.336;2022-10-26T03:30:50;2.03;;;1.63;;
12383;SDS011;6256;63.808;20.336;2022-10-26T03:33:16;2.90;;;1.83;;
12383;SDS011;6256;63.808;20.336;2022-10-26T03:35:42;2.63;;;1.87;;
12383;SDS011;6256;63.808;20.336;2022-10-26T03:38:07;3.67;;;1.90;;
12383;SDS011;6256;63.808;20.336;2022-10-26T03:40:34;4.13;;;2.10;;
12383;SDS011;6256;63.808;20.336;2022-10-26T03:43:00;2.17;;;1.97;;
12383;SDS011;6256;63.808;20.336;2022-10-26T03:45:27;2.60;;;1.80;;
12383;SDS011;6256;63.808;20.336;2022-10-26T03:47:52;3.60;;;1.73;;
12383;SDS011;6256;63.808;20.336;2022-10-26T03:50:19;2.30;;;1.67;;
12383;SDS011;6256;63.808;20.336;2022-10-26T03:52:46;2.33;;;1.87;;
12383;SDS011;6256;63.808;20.336;2022-10-26T03:55:12;2.23;;;1.80;;
12383;SDS011;6256;63.808;20.336;2022-10-26T03:57:42;2.40;;;1.70;;
12383;SDS011;6256;63.808;20.336;2022-10-26T04:00:09;1.83;;;1.50;;
12383;SDS011;6256;63.808;20.336;2022-10-26T04:02:36;3.47;;;2.27;;
12383;SDS011;6256;63.808;20.336;2022-10-26T04:05:03;2.37;;;1.83;;
12383;SDS011;6256;63.808;20.336;2022-10-26T04:07:29;3.17;;;1.90;;
12383;SDS011;6256;63.808;20.336;2022-10-26T04:09:54;1.90;;;1.67;;
12383;SDS011;6256;63.808;20.336;2022-10-26T04:12:20;2.00;;;1.70;;
12383;SDS011;6256;63.808;20.336;2022-10-26T04:14:46;3.00;;;1.90;;
12383;SDS011;6256;63.808;20.336;2022-10-26T04:17:11;2.57;;;1.90;;
12383;SDS011;6256;63.808;20.336;2022-10-26T04:19:37;2.60;;;1.93;;
12383;SDS011;6256;63.808;20.336;2022-10-26T04:22:03;2.53;;;1.93;;
12383;SDS011;6256;63.808;20.336;2022-10-26T04:24:28;2.60;;;1.90;;
12383;SDS011;6256;63.808;20.336;2022-10-26T04:26:54;3.80;;;2.20;;
12383;SDS011;6256;63.808;20.336;2022-10-26T04:29:20;3.33;;;2.03;;
12383;SDS011;6256;63.808;20.336;2022-10-26T04:31:46;4.33;;;2.50;;
12383;SDS011;6256;63.808;20.336;2022-10-26T04:34:11;2.53;;;1.87;;
12383;SDS011;6256;63.808;20.336;2022-10-26T04:36:37;3.17;;;2.30;;
12383;SDS011;6256;63.808;20.336;2022-10-26T04:39:03;2.33;;;2.13;;
12383;SDS011;6256;63.808;20.336;2022-10-26T04:41:29;3.17;;;2.00;;
12383;SDS011;6256;63.808;20.336;2022-10-26T04:43:54;3.73;;;1.90;;
12383;SDS011;6256;63.808;20.336;2022-10-26T04:46:20;3.00;;;2.43;;
12383;SDS011;6256;63.808;20.336;2022-10-26T04:48:49;3.63;;;2.40;;
12383;SDS011;6256;63.808;20.336;2022-10-26T04:51:14;3.13;;;2.23;;
12383;SDS011;6256;63.808;20.336;2022-10-26T04:53:40;4.33;;;2.37;;
12383;SDS011;6256;63.808;20.336;2022-10-26T04:56:06;4.03;;;2.13;;
12383;SDS011;6256;63.808;20.336;2022-10-26T04:58:32;4.60;;;2.93;;
12383;SDS011;6256;63.808;20.336;2022-10-26T05:00:59;3.47;;;2.33;;
12383;SDS011;6256;63.808;20.336;2022-10-26T05:03:26;3.20;;;2.37;;
12383;SDS011;6256;63.808;20.336;2022-10-26T05:05:52;3.40;;;2.60;;
12383;SDS011;6256;63.808;20.336;2022-10-26T05:08:17;3.07;;;2.00;;
12383;SDS011;6256;63.808;20.336;2022-10-26T05:10:47;2.90;;;2.23;;
12383;SDS011;6256;63.808;20.336;2022-10-26T05:13:14;3.53;;;2.27;;
12383;SDS011;6256;63.808;20.336;2022-10-26T05:15:40;3.17;;;2.60;;
12383;SDS011;6256;63.808;20.336;2022-10-26T05:18:06;3.17;;;2.27;;
12383;SDS011;6256;63.808;20.336;2022-10-26T05:20:33;4.03;;;1.97;;
12383;SDS011;6256;63.808;20.336;2022-10-26T05:23:04;3.33;;;2.17;;
12383;SDS011;6256;63.808;20.336;2022-10-26T05:25:35;2.97;;;2.40;;
12383;SDS011;6256;63.808;20.336;2022-10-26T05:28:05;4.57;;;2.60;;
12383;SDS011;6256;63.808;20.336;2022-10-26T05:30:33;2.77;;;2.47;;
12383;SDS011;6256;63.808;20.336;2022-10-26T05:33:00;3.60;;;2.40;;
12383;SDS011;6256;63.808;20.336;2022-10-26T05:35:32;3.17;;;2.50;;
12383;SDS011;6256;63.808;20.336;2022-10-26T05:37:58;3.10;;;2.80;;
12383;SDS011;6256;63.808;20.336;2022-10-26T05:40:24;3.80;;;2.47;;
12383;SDS011;6256;63.808;20.336;2022-10-26T05:42:50;3.37;;;3.07;;
12383;SDS011;6256;63.808;20.336;2022-10-26T05:45:16;3.20;;;2.53;;
12383;SDS011;6256;63.808;20.336;2022-10-26T05:47:42;4.03;;;2.90;;
12383;SDS011;6256;63.808;20.336;2022-10-26T05:50:09;3.77;;;2.53;;
12383;SDS011;6256;63.808;20.336;2022-10-26T05:55:09;4.00;;;2.53;;
12383;SDS011;6256;63.808;20.336;2022-10-26T05:57:36;4.03;;;3.10;;
12383;SDS011;6256;63.808;20.336;2022-10-26T06:00:24;3.10;;;2.23;;
12383;SDS011;6256;63.808;20.336;2022-10-26T06:03:34;3.77;;;2.63;;
12383;SDS011;6256;63.808;20.336;2022-10-26T06:05:55;2.37;;;2.17;;
12383;SDS011;6256;63.808;20.336;2022-10-26T06:08:23;3.20;;;2.60;;
12383;SDS011;6256;63.808;20.336;2022-10-26T06:10:51;4.27;;;2.57;;
12383;SDS011;6256;63.808;20.336;2022-10-26T06:13:18;7.80;;;2.80;;
12383;SDS011;6256;63.808;20.336;2022-10-26T06:15:48;4.27;;;2.67;;
12383;SDS011;6256;63.808;20.336;2022-10-26T06:19:05;4.67;;;2.73;;
12383;SDS011;6256;63.808;20.336;2022-10-26T06:23:53;3.20;;;2.50;;
12383;SDS011;6256;63.808;20.336;2022-10-26T06:32:14;3.70;;;2.93;;
12383;SDS011;6256;63.808;20.336;2022-10-26T06:34:44;3.40;;;2.23;;
12383;SDS011;6256;63.808;20.336;2022-10-26T06:37:13;4.13;;;2.83;;
12383;SDS011;6256;63.808;20.336;2022-10-26T06:39:41;3.27;;;2.63;;
12383;SDS011;6256;63.808;20.336;2022-10-26T06:42:10;3.00;;;2.27;;
12383;SDS011;6256;63.808;20.336;2022-10-26T06:44:37;3.63;;;2.63;;
12383;SDS011;6256;63.808;20.336;2022-10-26T06:47:09;3.03;;;2.23;;
12383;SDS011;6256;63.808;20.336;2022-10-26T06:54:47;2.57;;;1.70;;
12383;SDS011;6256;63.808;20.336;2022-10-26T06:57:20;2.13;;;1.67;;
12383;SDS011;6256;63.808;20.336;2022-10-26T07:02:30;2.77;;;2.20;;
12383;SDS011;6256;63.808;20.336;2022-10-26T07:04:56;3.23;;;2.03;;
12383;SDS011;6256;63.808;20.336;2022-10-26T07:07:23;3.73;;;2.07;;
12383;SDS011;6256;63.808;20.336;2022-10-26T07:09:50;4.77;;;2.50;;
12383;SDS011;6256;63.808;20.336;2022-10-26T07:12:16;3.97;;;2.07;;
12383;SDS011;6256;63.808;20.336;2022-10-26T07:14:42;3.57;;;2.20;;
12383;SDS011;6256;63.808;20.336;2022-10-26T07:17:08;1.93;;;1.83;;
12383;SDS011;6256;63.808;20.336;2022-10-26T07:19:36;2.97;;;2.10;;
12383;SDS011;6256;63.808;20.336;2022-10-26T07:22:02;3.00;;;2.10;;
12383;SDS011;6256;63.808;20.336;2022-10-26T07:24:28;2.20;;;1.67;;
12383;SDS011;6256;63.808;20.336;2022-10-26T07:26:54;3.17;;;2.27;;
12383;SDS011;6256;63.808;20.336;2022-10-26T07:29:21;2.87;;;1.90;;
12383;SDS011;6256;63.808;20.336;2022-10-26T07:31:47;2.10;;;1.90;;
12383;SDS011;6256;63.808;20.336;2022-10-26T07:34:13;3.20;;;2.50;;
12383;SDS011;6256;63.808;20.336;2022-10-26T07:36:39;3.83;;;2.50;;
12383;SDS011;6256;63.808;20.336;2022-10-26T07:39:05;3.80;;;2.33;;
12383;SDS011;6256;63.808;20.336;2022-10-26T07:41:31;2.70;;;2.30;;
12383;SDS011;6256;63.808;20.336;2022-10-26T07:43:57;3.57;;;1.87;;
12383;SDS011;6256;63.808;20.336;2022-10-26T07:46:23;3.80;;;2.57;;
12383;SDS011;6256;63.808;20.336;2022-10-26T07:48:49;4.23;;;2.17;;
12383;SDS011;6256;63.808;20.336;2022-10-26T07:51:15;3.47;;;2.67;;
12383;SDS011;6256;63.808;20.336;2022-10-26T07:53:41;3.43;;;2.23;;
12383;SDS011;6256;63.808;20.336;2022-10-26T07:56:07;2.50;;;1.97;;
12383;SDS011;6256;63.808;20.336;2022-10-26T07:58:34;2.10;;;1.83;;
12383;SDS011;6256;63.808;20.336;2022-10-26T08:01:10;3.20;;;2.50;;
12383;SDS011;6256;63.808;20.336;2022-10-26T08:03:38;2.10;;;1.87;;
12383;SDS011;6256;63.808;20.336;2022-10-26T08:06:04;3.80;;;2.60;;
12383;SDS011;6256;63.808;20.336;2022-10-26T08:08:32;4.13;;;2.40;;
12383;SDS011;6256;63.808;20.336;2022-10-26T08:10:58;3.07;;;2.27;;
12383;SDS011;6256;63.808;20.336;2022-10-26T08:13:24;2.37;;;2.03;;
12383;SDS011;6256;63.808;20.336;2022-10-26T08:15:49;3.53;;;2.67;;
12383;SDS011;6256;63.808;20.336;2022-10-26T08:18:23;4.17;;;2.60;;
12383;SDS011;6256;63.808;20.336;2022-10-26T08:20:49;3.27;;;2.60;;
12383;SDS011;6256;63.808;20.336;2022-10-26T08:23:15;3.03;;;2.27;;
12383;SDS011;6256;63.808;20.336;2022-10-26T08:25:41;2.83;;;2.30;;
12383;SDS011;6256;63.808;20.336;2022-10-26T08:28:06;3.63;;;2.53;;
12383;SDS011;6256;63.808;20.336;2022-10-26T08:30:32;3.07;;;2.10;;
12383;SDS011;6256;63.808;20.336;2022-10-26T08:32:59;3.77;;;2.30;;
12383;SDS011;6256;63.808;20.336;2022-10-26T08:35:29;3.10;;;2.20;;
12383;SDS011;6256;63.808;20.336;2022-10-26T08:37:55;6.20;;;2.03;;
12383;SDS011;6256;63.808;20.336;2022-10-26T08:40:23;3.43;;;2.00;;
12383;SDS011;6256;63.808;20.336;2022-10-26T08:42:52;2.63;;;1.77;;
12383;SDS011;6256;63.808;20.336;2022-10-26T08:45:27;1.87;;;1.77;;
12383;SDS011;6256;63.808;20.336;2022-10-26T08:48:03;2.00;;;1.60;;
12383;SDS011;6256;63.808;20.336;2022-10-26T08:50:42;1.50;;;1.40;;
12383;SDS011;6256;63.808;20.336;2022-10-26T08:53:21;2.00;;;1.60;;
12383;SDS011;6256;63.808;20.336;2022-10-26T08:58:39;1.60;;;1.50;;
12383;SDS011;6256;63.808;20.336;2022-10-26T09:01:15;1.63;;;1.53;;
12383;SDS011;6256;63.808;20.336;2022-10-26T09:03:42;1.50;;;1.40;;
12383;SDS011;6256;63.808;20.336;2022-10-26T09:19:54;2.60;;;1.47;;
12383;SDS011;6256;63.808;20.336;2022-10-26T09:27:55;1.57;;;1.30;;
12383;SDS011;6256;63.808;20.336;2022-10-26T09:30:23;1.40;;;0.83;;
12383;SDS011;6256;63.808;20.336;2022-10-26T09:32:51;1.10;;;1.00;;
12383;SDS011;6256;63.808;20.336;2022-10-26T09:35:41;1.10;;;0.93;;
12383;SDS011;6256;63.808;20.336;2022-10-26T09:38:10;0.90;;;0.90;;
12383;SDS011;6256;63.808;20.336;2022-10-26T09:46:24;0.87;;;0.87;;
12383;SDS011;6256;63.808;20.336;2022-10-26T09:49:09;0.80;;;0.80;;
12383;SDS011;6256;63.808;20.336;2022-10-26T09:51:38;0.70;;;0.70;;
12383;SDS011;6256;63.808;20.336;2022-10-26T09:54:16;0.60;;;0.60;;
12383;SDS011;6256;63.808;20.336;2022-10-26T09:56:46;0.80;;;0.80;;
12383;SDS011;6256;63.808;20.336;2022-10-26T09:59:19;0.63;;;0.63;;
12383;SDS011;6256;63.808;20.336;2022-10-26T10:01:48;0.90;;;0.90;;
12383;SDS011;6256;63.808;20.336;2022-10-26T10:06:45;1.87;;;0.90;;
12383;SDS011;6256;63.808;20.336;2022-10-26T10:09:16;3.20;;;1.13;;
12383;SDS011;6256;63.808;20.336;2022-10-26T10:11:50;1.30;;;1.10;;
12383;SDS011;6256;63.808;20.336;2022-10-26T10:14:28;1.00;;;1.00;;
12383;SDS011;6256;63.808;20.336;2022-10-26T10:17:04;1.17;;;1.00;;
12383;SDS011;6256;63.808;20.336;2022-10-26T10:19:40;2.00;;;1.10;;
12383;SDS011;6256;63.808;20.336;2022-10-26T10:22:50;1.60;;;1.10;;
12383;SDS011;6256;63.808;20.336;2022-10-26T10:24:58;1.23;;;1.13;;
12383;SDS011;6256;63.808;20.336;2022-10-26T10:27:26;1.00;;;0.90;;
12383;SDS011;6256;63.808;20.336;2022-10-26T10:29:53;1.60;;;1.10;;
12383;SDS011;6256;63.808;20.336;2022-10-26T10:32:21;1.87;;;1.10;;
12383;SDS011;6256;63.808;20.336;2022-10-26T10:34:56;1.03;;;0.93;;
12383;SDS011;6256;63.808;20.336;2022-10-26T10:37:34;0.80;;;0.80;;
12383;SDS011;6256;63.808;20.336;2022-10-26T10:42:39;1.73;;;1.50;;
12383;SDS011;6256;63.808;20.336;2022-10-26T10:45:06;1.10;;;1.00;;
12383;SDS011;6256;63.808;20.336;2022-10-26T10:48:00;2.77;;;1.30;;
12383;SDS011;6256;63.808;20.336;2022-10-26T10:50:29;1.20;;;1.10;;
12383;SDS011;6256;63.808;20.336;2022-10-26T10:53:12;1.23;;;1.10;;
12383;SDS011;6256;63.808;20.336;2022-10-26T11:01:12;0.80;;;0.80;;
12383;SDS011;6256;63.808;20.336;2022-10-26T11:06:28;0.93;;;0.93;;
12383;SDS011;6256;63.808;20.336;2022-10-26T11:08:59;1.53;;;1.10;;
12383;SDS011;6256;63.808;20.336;2022-10-26T11:14:00;0.70;;;0.70;;
12383;SDS011;6256;63.808;20.336;2022-10-26T11:16:47;0.80;;;0.80;;
12383;SDS011;6256;63.808;20.336;2022-10-26T11:19:36;0.80;;;0.80;;
12383;SDS011;6256;63.808;20.336;2022-10-26T11:22:10;0.80;;;0.80;;
12383;SDS011;6256;63.808;20.336;2022-10-26T11:24:48;1.67;;;1.00;;
12383;SDS011;6256;63.808;20.336;2022-10-26T11:27:28;0.63;;;0.63;;
12383;SDS011;6256;63.808;20.336;2022-10-26T11:38:22;0.70;;;0.70;;
12383;SDS011;6256;63.808;20.336;2022-10-26T11:43:46;0.70;;;0.70;;
12383;SDS011;6256;63.808;20.336;2022-10-26T11:46:15;0.67;;;0.67;;
12383;SDS011;6256;63.808;20.336;2022-10-26T11:48:56;0.80;;;0.80;;
12383;SDS011;6256;63.808;20.336;2022-10-26T11:54:15;0.90;;;0.90;;
12383;SDS011;6256;63.808;20.336;2022-10-26T11:56:50;0.73;;;0.73;;
12383;SDS011;6256;63.808;20.336;2022-10-26T11:59:19;0.97;;;0.80;;
12383;SDS011;6256;63.808;20.336;2022-10-26T12:01:51;1.43;;;1.00;;
12383;SDS011;6256;63.808;20.336;2022-10-26T12:04:25;3.53;;;0.87;;
12383;SDS011;6256;63.808;20.336;2022-10-26T12:06:54;0.90;;;0.90;;
12383;SDS011;6256;63.808;20.336;2022-10-26T12:09:31;0.60;;;0.60;;
12383;SDS011;6256;63.808;20.336;2022-10-26T12:15:33;0.77;;;0.70;;
12383;SDS011;6256;63.808;20.336;2022-10-26T12:23:19;0.60;;;0.60;;
12383;SDS011;6256;63.808;20.336;2022-10-26T12:25:46;3.07;;;0.70;;
12383;SDS011;6256;63.808;20.336;2022-10-26T12:33:57;0.80;;;0.80;;
12383;SDS011;6256;63.808;20.336;2022-10-26T12:37:09;1.50;;;0.70;;
12383;SDS011;6256;63.808;20.336;2022-10-26T12:44:36;0.70;;;0.70;;
12383;SDS011;6256;63.808;20.336;2022-10-26T12:47:06;0.83;;;0.83;;
12383;SDS011;6256;63.808;20.336;2022-10-26T12:52:28;0.80;;;0.80;;
12383;SDS011;6256;63.808;20.336;2022-10-26T13:00:25;0.70;;;0.70;;
12383;SDS011;6256;63.808;20.336;2022-10-26T13:08:38;0.70;;;0.70;;
12383;SDS011;6256;63.808;20.336;2022-10-26T13:11:06;0.80;;;0.80;;
12383;SDS011;6256;63.808;20.336;2022-10-26T13:13:40;0.47;;;0.47;;
12383;SDS011;6256;63.808;20.336;2022-10-26T13:16:09;0.90;;;0.90;;
12383;SDS011;6256;63.808;20.336;2022-10-26T13:18:45;0.87;;;0.70;;
12383;SDS011;6256;63.808;20.336;2022-10-26T13:21:17;1.03;;;0.93;;
12383;SDS011;6256;63.808;20.336;2022-10-26T13:26:23;1.80;;;0.90;;
12383;SDS011;6256;63.808;20.336;2022-10-26T13:28:51;0.70;;;0.70;;
12383;SDS011;6256;63.808;20.336;2022-10-26T13:33:56;2.10;;;0.80;;
12383;SDS011;6256;63.808;20.336;2022-10-26T13:36:42;0.80;;;0.80;;
12383;SDS011;6256;63.808;20.336;2022-10-26T13:39:16;0.70;;;0.70;;
12383;SDS011;6256;63.808;20.336;2022-10-26T13:41:54;1.07;;;0.83;;
12383;SDS011;6256;63.808;20.336;2022-10-26T13:50:24;1.53;;;1.00;;
12383;SDS011;6256;63.808;20.336;2022-10-26T13:52:53;0.97;;;0.90;;
12383;SDS011;6256;63.808;20.336;2022-10-26T13:55:27;0.77;;;0.77;;
12383;SDS011;6256;63.808;20.336;2022-10-26T14:00:58;0.90;;;0.90;;
12383;SDS011;6256;63.808;20.336;2022-10-26T14:03:25;1.20;;;0.90;;
12383;SDS011;6256;63.808;20.336;2022-10-26T14:05:51;1.00;;;0.90;;
12383;SDS011;6256;63.808;20.336;2022-10-26T14:08:18;0.73;;;0.73;;
12383;SDS011;6256;63.808;20.336;2022-10-26T14:10:45;1.20;;;0.90;;
12383;SDS011;6256;63.808;20.336;2022-10-26T14:13:16;0.97;;;0.97;;
12383;SDS011;6256;63.808;20.336;2022-10-26T14:15:47;1.20;;;1.00;;
12383;SDS011;6256;63.808;20.336;2022-10-26T14:18:15;0.60;;;0.60;;
12383;SDS011;6256;63.808;20.336;2022-10-26T14:20:54;1.23;;;1.13;;
12383;SDS011;6256;63.808;20.336;2022-10-26T14:23:32;3.70;;;1.20;;
12383;SDS011;6256;63.808;20.336;2022-10-26T14:25:58;0.80;;;0.80;;
12383;SDS011;6256;63.808;20.336;2022-10-26T14:28:28;0.83;;;0.83;;
12383;SDS011;6256;63.808;20.336;2022-10-26T14:33:46;1.03;;;0.87;;
12383;SDS011;6256;63.808;20.336;2022-10-26T14:36:12;0.90;;;0.90;;
12383;SDS011;6256;63.808;20.336;2022-10-26T14:38:43;0.90;;;0.90;;
12383;SDS011;6256;63.808;20.336;2022-10-26T14:41:11;0.73;;;0.73;;
12383;SDS011;6256;63.808;20.336;2022-10-26T14:43:41;1.20;;;1.00;;
12383;SDS011;6256;63.808;20.336;2022-10-26T14:46:17;0.90;;;0.73;;
12383;SDS011;6256;63.808;20.336;2022-10-26T14:48:54;1.10;;;1.00;;
12383;SDS011;6256;63.808;20.336;2022-10-26T14:51:30;0.93;;;0.93;;
12383;SDS011;6256;63.808;20.336;2022-10-26T14:53:59;1.20;;;1.10;;
12383;SDS011;6256;63.808;20.336;2022-10-26T14:56:29;1.03;;;0.83;;
12383;SDS011;6256;63.808;20.336;2022-10-26T14:59:09;3.27;;;2.43;;
12383;SDS011;6256;63.808;20.336;2022-10-26T15:04:38;1.27;;;1.17;;
12383;SDS011;6256;63.808;20.336;2022-10-26T15:07:06;2.67;;;1.40;;
12383;SDS011;6256;63.808;20.336;2022-10-26T15:09:51;3.03;;;1.10;;
12383;SDS011;6256;63.808;20.336;2022-10-26T15:12:28;1.43;;;1.20;;
12383;SDS011;6256;63.808;20.336;2022-10-26T15:17:42;2.13;;;1.63;;
12383;SDS011;6256;63.808;20.336;2022-10-26T15:20:17;2.03;;;1.60;;
12383;SDS011;6256;63.808;20.336;2022-10-26T15:22:48;2.20;;;1.53;;
12383;SDS011;6256;63.808;20.336;2022-10-26T15:25:17;1.30;;;1.20;;
12383;SDS011;6256;63.808;20.336;2022-10-26T15:27:47;1.40;;;1.30;;
12383;SDS011;6256;63.808;20.336;2022-10-26T15:30:17;1.30;;;1.20;;
12383;SDS011;6256;63.808;20.336;2022-10-26T15:32:43;1.33;;;1.23;;
12383;SDS011;6256;63.808;20.336;2022-10-26T15:37:35;1.57;;;1.20;;
12383;SDS011;6256;63.808;20.336;2022-10-26T15:40:01;1.57;;;1.30;;
12383;SDS011;6256;63.808;20.336;2022-10-26T15:42:27;1.70;;;1.47;;
12383;SDS011;6256;63.808;20.336;2022-10-26T15:44:53;1.93;;;1.23;;
12383;SDS011;6256;63.808;20.336;2022-10-26T15:47:19;1.57;;;1.20;;
12383;SDS011;6256;63.808;20.336;2022-10-26T15:49:45;1.27;;;1.17;;
12383;SDS011;6256;63.808;20.336;2022-10-26T15:52:11;3.57;;;1.13;;
12383;SDS011;6256;63.808;20.336;2022-10-26T15:54:37;1.47;;;1.37;;
12383;SDS011;6256;63.808;20.336;2022-10-26T15:57:03;1.30;;;1.20;;
12383;SDS011;6256;63.808;20.336;2022-10-26T15:59:29;1.40;;;1.30;;
12383;SDS011;6256;63.808;20.336;2022-10-26T16:01:55;1.70;;;1.40;;
12383;SDS011;6256;63.808;20.336;2022-10-26T16:04:21;1.27;;;1.17;;
12383;SDS011;6256;63.808;20.336;2022-10-26T16:06:46;1.13;;;1.00;;
12383;SDS011;6256;63.808;20.336;2022-10-26T16:09:14;1.73;;;1.50;;
12383;SDS011;6256;63.808;20.336;2022-10-26T16:11:42;3.60;;;1.53;;
12383;SDS011;6256;63.808;20.336;2022-10-26T16:14:09;4.57;;;2.80;;
12383;SDS011;6256;63.808;20.336;2022-10-26T16:16:36;6.93;;;3.93;;
12383;SDS011;6256;63.808;20.336;2022-10-26T16:19:02;9.13;;;4.80;;
12383;SDS011;6256;63.808;20.336;2022-10-26T16:21:28;5.33;;;4.33;;
12383;SDS011;6256;63.808;20.336;2022-10-26T16:23:54;6.80;;;3.53;;
12383;SDS011;6256;63.808;20.336;2022-10-26T16:26:23;6.80;;;3.60;;
12383;SDS011;6256;63.808;20.336;2022-10-26T16:28:49;4.57;;;3.77;;
12383;SDS011;6256;63.808;20.336;2022-10-26T16:31:16;6.87;;;5.47;;
12383;SDS011;6256;63.808;20.336;2022-10-26T16:33:43;11.90;;;7.03;;
12383;SDS011;6256;63.808;20.336;2022-10-26T16:36:09;8.90;;;6.37;;
12383;SDS011;6256;63.808;20.336;2022-10-26T16:38:36;6.63;;;4.77;;
12383;SDS011;6256;63.808;20.336;2022-10-26T16:41:09;2.80;;;2.20;;
12383;SDS011;6256;63.808;20.336;2022-10-26T16:43:37;2.43;;;1.83;;
12383;SDS011;6256;63.808;20.336;2022-10-26T16:46:17;3.73;;;2.63;;
12383;SDS011;6256;63.808;20.336;2022-10-26T16:48:46;1.80;;;1.70;;
12383;SDS011;6256;63.808;20.336;2022-10-26T16:51:17;3.13;;;1.60;;
12383;SDS011;6256;63.808;20.336;2022-10-26T16:53:54;1.83;;;1.50;;
12383;SDS011;6256;63.808;20.336;2022-10-26T16:56:21;2.90;;;1.97;;
12383;SDS011;6256;63.808;20.336;2022-10-26T16:58:49;1.87;;;1.63;;
12383;SDS011;6256;63.808;20.336;2022-10-26T17:01:15;1.73;;;1.50;;
12383;SDS011;6256;63.808;20.336;2022-10-26T17:03:46;2.67;;;1.80;;
12383;SDS011;6256;63.808;20.336;2022-10-26T17:06:13;2.03;;;1.77;;
12383;SDS011;6256;63.808;20.336;2022-10-26T17:08:39;1.70;;;1.50;;
12383;SDS011;6256;63.808;20.336;2022-10-26T17:11:06;2.00;;;1.40;;
12383;SDS011;6256;63.808;20.336;2022-10-26T17:13:40;3.53;;;2.03;;
12383;SDS011;6256;63.808;20.336;2022-10-26T17:16:14;1.60;;;1.50;;
12383;SDS011;6256;63.808;20.336;2022-10-26T17:18:42;1.97;;;1.60;;
12383;SDS011;6256;63.808;20.336;2022-10-26T17:21:09;2.60;;;1.50;;
12383;SDS011;6256;63.808;20.336;2022-10-26T17:23:36;1.90;;;1.70;;
12383;SDS011;6256;63.808;20.336;2022-10-26T17:26:02;1.60;;;1.50;;
12383;SDS011;6256;63.808;20.336;2022-10-26T17:28:29;2.90;;;1.80;;
12383;SDS011;6256;63.808;20.336;2022-10-26T17:31:11;2.03;;;1.70;;
12383;SDS011;6256;63.808;20.336;2022-10-26T17:33:39;1.70;;;1.60;;
12383;SDS011;6256;63.808;20.336;2022-10-26T17:36:11;1.57;;;1.47;;
12383;SDS011;6256;63.808;20.336;2022-10-26T17:38:38;1.77;;;1.67;;
12383;SDS011;6256;63.808;20.336;2022-10-26T17:41:09;1.67;;;1.40;;
12383;SDS011;6256;63.808;20.336;2022-10-26T17:43:38;1.53;;;1.43;;
12383;SDS011;6256;63.808;20.336;2022-10-26T17:46:05;1.87;;;1.70;;
12383;SDS011;6256;63.808;20.336;2022-10-26T17:48:41;1.93;;;1.67;;
12383;SDS011;6256;63.808;20.336;2022-10-26T17:51:11;2.53;;;1.67;;
12383;SDS011;6256;63.808;20.336;2022-10-26T17:53:38;2.83;;;1.93;;
12383;SDS011;6256;63.808;20.336;2022-10-26T17:56:05;2.93;;;2.23;;